Time;durP1;ratioP1;P1;durP2;ratioP2;P2;SDS_P1;SDS_P2;PMS_P1;PMS_P2;Temp;Humidity;BMP_temperature;BMP_pressure;BME280_temperature;BME280_humidity;BME280_pressure;Samples;Min_cycle;Max_cycle;Signal;HPM_P1;HPM_P2
2021/08/17 00:02:25;;;;;;;5.87;3.03;;;13.50;99.90;;;;;;5030106;28;20709;-72
2021/08/17 00:04:52;;;;;;;6.23;2.80;;;13.50;99.90;;;;;;5030792;28;20239;-72
2021/08/17 00:07:19;;;;;;;10.37;3.83;;;13.50;99.90;;;;;;5030203;28;20213;-72
2021/08/17 00:09:47;;;;;;;4.20;2.57;;;13.70;99.90;;;;;;5030646;28;20205;-72
2021/08/17 00:12:14;;;;;;;5.83;2.57;;;13.70;99.90;;;;;;5030299;28;20228;-73
2021/08/17 00:14:41;;;;;;;4.47;2.60;;;13.60;99.90;;;;;;5040621;28;21028;-72
2021/08/17 00:17:09;;;;;;;4.90;2.70;;;13.60;99.90;;;;;;5050103;28;20208;-72
2021/08/17 00:19:38;;;;;;;7.63;2.80;;;13.60;99.90;;;;;;5050777;28;20216;-71
2021/08/17 00:22:04;;;;;;;5.70;2.67;;;13.70;99.90;;;;;;5050432;28;20212;-71
2021/08/17 00:24:33;;;;;;;5.63;2.70;;;13.70;99.90;;;;;;5050415;28;20204;-72
2021/08/17 00:27:01;;;;;;;5.07;2.97;;;13.90;99.90;;;;;;5041095;28;20636;-72
2021/08/17 00:29:27;;;;;;;4.53;2.93;;;13.80;99.90;;;;;;5029546;28;20236;-72
2021/08/17 00:31:54;;;;;;;4.97;2.80;;;14.00;99.90;;;;;;5030389;28;20236;-72
2021/08/17 00:34:21;;;;;;;7.70;3.30;;;14.00;99.90;;;;;;5030363;28;20287;-73
2021/08/17 00:36:48;;;;;;;10.80;3.00;;;13.90;99.90;;;;;;5029088;28;20287;-72
2021/08/17 00:39:15;;;;;;;5.03;2.97;;;14.00;99.90;;;;;;5029895;28;20363;-72
2021/08/17 00:41:42;;;;;;;3.93;2.73;;;13.90;99.90;;;;;;5030106;28;20213;-73
2021/08/17 00:44:19;;;;;;;4.23;2.40;;;13.90;99.90;;;;;;5029996;28;20219;-72
2021/08/17 00:46:46;;;;;;;5.27;2.53;;;13.90;99.90;;;;;;5030108;28;20193;-73
2021/08/17 00:49:12;;;;;;;5.80;2.40;;;13.90;99.90;;;;;;5030368;28;20626;-73
2021/08/17 00:51:39;;;;;;;5.43;2.87;;;13.80;99.90;;;;;;5030060;28;20205;-72
2021/08/17 00:54:06;;;;;;;4.37;2.90;;;13.90;99.90;;;;;;5029942;28;20268;-72
2021/08/17 00:56:33;;;;;;;4.10;2.80;;;13.80;99.90;;;;;;5029603;28;20236;-73
2021/08/17 00:58:59;;;;;;;6.30;2.63;;;13.90;99.90;;;;;;5029351;28;20346;-72
2021/08/17 01:01:27;;;;;;;9.63;3.37;;;13.80;99.90;;;;;;5029542;28;20221;-72
2021/08/17 01:03:54;;;;;;;7.67;3.03;;;13.90;99.90;;;;;;5029428;28;20266;-72
2021/08/17 01:06:21;;;;;;;8.30;3.33;;;13.80;99.90;;;;;;5029651;28;20246;-72
2021/08/17 01:08:48;;;;;;;5.27;2.53;;;13.90;99.90;;;;;;5029498;28;20201;-72
2021/08/17 01:11:16;;;;;;;6.07;2.77;;;13.90;99.90;;;;;;5029335;28;20309;-72
2021/08/17 01:13:42;;;;;;;6.47;2.67;;;13.90;99.90;;;;;;5029345;28;20241;-72
2021/08/17 01:16:09;;;;;;;6.23;2.63;;;13.90;99.90;;;;;;5029432;28;20208;-71
2021/08/17 01:18:37;;;;;;;6.70;2.77;;;13.90;99.90;;;;;;5029345;28;20213;-72
2021/08/17 01:21:08;;;;;;;4.20;2.67;;;13.80;99.90;;;;;;5029531;28;20216;-72
2021/08/17 01:23:34;;;;;;;6.03;2.53;;;13.90;99.90;;;;;;5029152;28;20424;-71
2021/08/17 01:26:02;;;;;;;5.00;2.50;;;13.90;99.90;;;;;;5029079;28;20209;-71
2021/08/17 01:28:29;;;;;;;7.30;3.10;;;13.90;99.90;;;;;;5028708;28;20603;-71
2021/08/17 01:31:00;;;;;;;5.47;3.03;;;13.90;99.90;;;;;;5029159;28;20232;-72
2021/08/17 01:33:27;;;;;;;4.70;2.70;;;13.90;99.90;;;;;;5028603;28;20243;-70
2021/08/17 01:35:54;;;;;;;6.97;2.73;;;13.90;99.90;;;;;;5028917;28;20616;-70
2021/08/17 01:38:21;;;;;;;6.03;2.83;;;13.90;99.90;;;;;;5028880;28;20208;-71
2021/08/17 01:40:48;;;;;;;6.60;2.73;;;13.90;99.90;;;;;;5028199;28;20205;-71
2021/08/17 01:43:16;;;;;;;5.90;2.87;;;13.80;99.90;;;;;;5029012;28;20216;-70
2021/08/17 01:45:43;;;;;;;6.23;3.20;;;13.80;99.90;;;;;;5028724;28;20686;-71
2021/08/17 01:48:10;;;;;;;5.50;2.70;;;13.80;99.90;;;;;;5028895;28;20209;-71
2021/08/17 01:50:37;;;;;;;4.63;2.43;;;13.90;99.90;;;;;;5028760;28;20208;-71
2021/08/17 01:53:04;;;;;;;9.03;2.80;;;13.90;99.90;;;;;;5028731;28;20220;-71
2021/08/17 01:55:31;;;;;;;3.80;2.53;;;14.00;99.90;;;;;;5028672;28;20216;-70
2021/08/17 01:57:58;;;;;;;5.20;2.43;;;13.90;99.90;;;;;;5028517;28;20299;-70
2021/08/17 02:00:26;;;;;;;6.07;2.13;;;14.00;99.90;;;;;;5028282;28;20245;-71
2021/08/17 02:02:53;;;;;;;7.50;2.47;;;14.00;99.90;;;;;;5028712;28;20212;-70
2021/08/17 02:05:21;;;;;;;3.93;2.20;;;14.10;99.90;;;;;;5028659;28;20205;-71
2021/08/17 02:07:49;;;;;;;5.30;2.57;;;14.10;99.90;;;;;;5028791;28;20263;-70
2021/08/17 02:10:16;;;;;;;5.87;2.80;;;14.00;99.90;;;;;;5028834;28;20295;-71
2021/08/17 02:12:42;;;;;;;5.70;2.07;;;14.00;99.90;;;;;;5028162;28;20616;-71
2021/08/17 02:15:11;;;;;;;4.17;2.20;;;14.20;99.90;;;;;;5028607;28;20208;-71
2021/08/17 02:17:39;;;;;;;8.50;2.70;;;14.10;99.90;;;;;;5028662;28;20211;-71
2021/08/17 02:20:06;;;;;;;4.87;2.07;;;14.10;99.90;;;;;;5028727;28;20208;-72
2021/08/17 02:22:33;;;;;;;4.60;2.10;;;14.10;99.90;;;;;;5028331;28;20213;-72
2021/08/17 02:25:00;;;;;;;6.10;2.27;;;14.10;99.90;;;;;;5028533;28;20216;-72
2021/08/17 02:27:26;;;;;;;3.87;2.03;;;14.10;99.90;;;;;;5028165;28;20259;-72
2021/08/17 02:29:53;;;;;;;5.53;2.53;;;14.10;99.90;;;;;;5028309;28;20252;-73
2021/08/17 02:32:20;;;;;;;5.87;2.43;;;14.10;99.90;;;;;;5028328;28;20259;-73
2021/08/17 02:34:48;;;;;;;5.03;2.10;;;14.10;99.90;;;;;;5028063;28;20631;-73
2021/08/17 02:37:14;;;;;;;4.20;2.10;;;14.00;99.90;;;;;;5028204;28;20254;-73
2021/08/17 02:39:41;;;;;;;4.83;2.37;;;14.10;99.90;;;;;;5028277;28;20259;-73
2021/08/17 02:42:08;;;;;;;7.27;2.43;;;14.00;99.90;;;;;;5028238;28;20205;-73
2021/08/17 02:44:34;;;;;;;6.07;2.37;;;14.10;99.90;;;;;;5027964;28;20262;-72
2021/08/17 02:47:01;;;;;;;6.37;2.33;;;14.10;99.90;;;;;;5028297;28;20209;-73
2021/08/17 02:49:28;;;;;;;3.03;2.10;;;14.00;99.90;;;;;;5028096;28;20618;-73
2021/08/17 02:51:56;;;;;;;4.83;2.20;;;14.00;99.90;;;;;;5028613;28;20205;-73
2021/08/17 02:54:23;;;;;;;4.10;2.20;;;14.00;99.90;;;;;;5031862;28;20621;-73
2021/08/17 02:56:53;;;;;;;3.97;2.03;;;14.10;99.90;;;;;;5031810;28;20201;-73
2021/08/17 02:59:19;;;;;;;6.83;2.67;;;14.20;99.90;;;;;;5031486;28;20283;-73
2021/08/17 03:01:46;;;;;;;4.83;2.40;;;14.20;99.90;;;;;;5031523;28;20286;-73
2021/08/17 03:04:13;;;;;;;5.23;2.70;;;14.10;99.90;;;;;;5032074;28;20298;-72
2021/08/17 03:06:41;;;;;;;5.87;2.50;;;14.10;99.90;;;;;;5031125;28;20616;-73
2021/08/17 03:09:09;;;;;;;5.13;2.30;;;14.20;99.90;;;;;;5031587;28;20211;-73
2021/08/17 03:11:36;;;;;;;5.73;2.43;;;14.10;99.90;;;;;;5031102;28;20209;-73
2021/08/17 03:14:04;;;;;;;5.90;2.57;;;14.10;99.90;;;;;;5031498;28;20291;-73
2021/08/17 03:16:31;;;;;;;5.63;2.63;;;14.00;99.90;;;;;;5031596;28;20235;-73
2021/08/17 03:18:58;;;;;;;5.50;3.17;;;14.00;99.90;;;;;;5031662;28;20201;-71
2021/08/17 03:21:25;;;;;;;4.93;2.50;;;14.00;99.90;;;;;;5031697;28;20201;-71
2021/08/17 03:23:51;;;;;;;4.77;2.50;;;14.00;99.90;;;;;;5031639;28;20213;-71
2021/08/17 03:26:20;;;;;;;7.23;2.90;;;14.10;99.90;;;;;;5031273;28;20213;-70
2021/08/17 03:28:46;;;;;;;5.37;2.80;;;14.10;99.90;;;;;;5031619;28;20200;-70
2021/08/17 03:31:13;;;;;;;3.53;2.57;;;14.10;99.90;;;;;;5031525;28;20236;-72
2021/08/17 03:33:40;;;;;;;3.83;2.70;;;14.20;99.90;;;;;;5030994;28;20644;-72
2021/08/17 03:36:06;;;;;;;7.07;2.67;;;14.10;99.90;;;;;;5031181;28;20232;-72
2021/08/17 03:38:33;;;;;;;8.53;3.40;;;14.20;99.90;;;;;;5031107;28;20209;-72
2021/08/17 03:41:00;;;;;;;7.50;2.77;;;14.20;99.90;;;;;;5031170;28;20687;-72
2021/08/17 03:43:28;;;;;;;5.13;2.77;;;14.20;99.90;;;;;;5031022;28;20205;-72
2021/08/17 03:45:56;;;;;;;5.67;2.77;;;14.20;99.90;;;;;;5031129;28;20290;-72
2021/08/17 03:48:23;;;;;;;4.03;2.80;;;14.20;99.90;;;;;;5030794;28;20804;-72
2021/08/17 03:50:49;;;;;;;5.23;2.90;;;14.30;99.90;;;;;;5031351;28;20208;-72
2021/08/17 03:53:16;;;;;;;6.20;2.73;;;14.30;99.90;;;;;;5031113;28;20315;-71
2021/08/17 03:55:43;;;;;;;5.53;3.13;;;14.40;99.90;;;;;;5030886;28;20266;-72
2021/08/17 03:58:09;;;;;;;5.30;2.90;;;14.40;99.90;;;;;;5030760;28;20232;-72
2021/08/17 04:00:37;;;;;;;4.67;2.87;;;14.30;99.90;;;;;;5030630;28;21121;-72
2021/08/17 04:03:04;;;;;;;6.67;3.00;;;14.30;99.90;;;;;;5030276;28;20671;-72
2021/08/17 04:05:32;;;;;;;4.13;3.17;;;14.30;99.90;;;;;;5030040;28;20209;-72
2021/08/17 04:07:58;;;;;;;4.03;2.70;;;14.30;99.90;;;;;;5030725;28;20209;-72
2021/08/17 04:10:25;;;;;;;5.40;3.03;;;14.30;99.90;;;;;;5030311;28;20741;-71
2021/08/17 04:12:52;;;;;;;3.30;2.47;;;14.30;99.90;;;;;;5030735;28;20204;-69
2021/08/17 04:15:18;;;;;;;4.93;2.90;;;14.50;99.90;;;;;;5030671;28;20229;-69
2021/08/17 04:17:46;;;;;;;4.90;2.77;;;14.40;99.90;;;;;;5030479;28;20213;-69
2021/08/17 04:20:13;;;;;;;6.77;2.90;;;14.30;99.90;;;;;;5030173;28;20204;-69
2021/08/17 04:22:40;;;;;;;4.03;2.30;;;14.30;99.90;;;;;;5030493;28;20213;-69
2021/08/17 04:25:08;;;;;;;4.10;2.50;;;14.40;99.90;;;;;;5030155;28;20216;-69
2021/08/17 04:27:34;;;;;;;4.87;2.50;;;14.40;99.90;;;;;;5030248;28;20205;-69
2021/08/17 04:30:02;;;;;;;4.10;2.60;;;14.40;99.90;;;;;;5030441;28;20258;-71
2021/08/17 04:32:29;;;;;;;4.57;2.27;;;14.40;99.90;;;;;;5029907;28;20201;-70
2021/08/17 04:34:57;;;;;;;6.73;2.83;;;14.40;99.90;;;;;;5030269;28;20648;-71
2021/08/17 04:37:24;;;;;;;6.20;2.70;;;14.40;99.90;;;;;;5030303;28;20209;-70
2021/08/17 04:39:51;;;;;;;10.87;2.83;;;14.40;99.90;;;;;;5030171;28;20597;-70
2021/08/17 04:42:17;;;;;;;6.40;2.60;;;14.40;99.90;;;;;;5029831;28;20695;-71
2021/08/17 04:44:44;;;;;;;3.57;2.20;;;14.40;99.90;;;;;;5030205;28;20208;-70
2021/08/17 04:47:11;;;;;;;3.33;2.30;;;14.40;99.90;;;;;;5030127;28;20216;-70
2021/08/17 04:49:37;;;;;;;4.83;2.57;;;14.50;99.90;;;;;;5029838;28;20254;-71
2021/08/17 04:52:06;;;;;;;3.93;2.30;;;14.50;99.90;;;;;;5029721;28;20686;-71
2021/08/17 04:54:32;;;;;;;6.87;3.00;;;14.50;99.90;;;;;;5029423;28;20699;-71
2021/08/17 04:56:59;;;;;;;4.00;2.50;;;14.50;99.90;;;;;;5029683;28;20298;-70
2021/08/17 04:59:26;;;;;;;5.67;2.50;;;14.50;99.90;;;;;;5029511;28;20240;-72
2021/08/17 05:01:52;;;;;;;2.97;2.20;;;14.50;99.90;;;;;;5029480;28;20209;-71
2021/08/17 05:04:19;;;;;;;4.23;2.60;;;14.50;99.90;;;;;;5029644;28;20209;-71
2021/08/17 05:06:45;;;;;;;5.60;2.43;;;14.50;99.90;;;;;;5029445;28;20953;-70
2021/08/17 05:09:14;;;;;;;6.67;2.80;;;14.60;99.90;;;;;;5029657;28;20213;-70
2021/08/17 05:11:40;;;;;;;6.33;3.00;;;14.60;99.90;;;;;;5029004;28;20200;-71
2021/08/17 05:14:07;;;;;;;6.90;3.03;;;14.70;99.90;;;;;;5029540;28;20243;-71
2021/08/17 05:16:34;;;;;;;5.23;2.50;;;14.70;99.90;;;;;;5029213;28;21045;-72
2021/08/17 05:19:01;;;;;;;6.23;2.40;;;14.70;99.90;;;;;;5029462;28;20205;-72
2021/08/17 05:21:27;;;;;;;5.67;2.47;;;14.70;99.90;;;;;;5029311;28;20205;-72
2021/08/17 05:23:56;;;;;;;7.20;2.93;;;14.80;99.90;;;;;;5029141;28;20266;-71
2021/08/17 05:26:24;;;;;;;5.00;2.77;;;14.70;99.90;;;;;;5029196;28;20209;-72
2021/08/17 05:28:50;;;;;;;5.17;2.33;;;14.80;99.90;;;;;;5029018;28;20204;-71
2021/08/17 05:31:17;;;;;;;6.07;2.60;;;14.90;99.90;;;;;;5029081;28;20209;-71
2021/08/17 05:33:44;;;;;;;5.90;2.40;;;14.90;99.90;;;;;;5029119;28;20278;-70
2021/08/17 05:36:10;;;;;;;5.50;2.57;;;15.00;99.90;;;;;;5028706;28;20230;-70
2021/08/17 05:38:37;;;;;;;5.37;2.53;;;15.00;99.90;;;;;;5028971;28;20244;-70
2021/08/17 05:41:04;;;;;;;6.10;2.40;;;14.90;99.90;;;;;;5028924;28;20209;-70
2021/08/17 05:43:32;;;;;;;5.80;2.93;;;14.80;99.90;;;;;;5028821;28;20562;-70
2021/08/17 05:46:02;;;;;;;5.90;2.87;;;14.80;99.90;;;;;;5028704;28;20258;-70
2021/08/17 05:48:29;;;;;;;8.40;3.03;;;14.90;99.90;;;;;;5028589;28;20192;-70
2021/08/17 05:50:56;;;;;;;5.90;2.80;;;14.80;99.90;;;;;;5028978;28;20215;-70
2021/08/17 05:53:22;;;;;;;5.73;2.83;;;14.80;99.90;;;;;;5028818;28;20208;-71
2021/08/17 05:55:50;;;;;;;8.50;3.13;;;14.90;99.90;;;;;;5028489;28;20241;-72
2021/08/17 05:58:16;;;;;;;4.73;2.90;;;14.90;99.90;;;;;;5028223;28;20271;-71
2021/08/17 06:00:44;;;;;;;9.50;3.20;;;14.90;99.90;;;;;;5028766;28;20228;-71
2021/08/17 06:03:11;;;;;;;5.80;3.03;;;15.00;99.90;;;;;;5028798;28;20274;-70
2021/08/17 06:05:38;;;;;;;6.67;2.90;;;14.90;99.90;;;;;;5028582;28;20213;-70
2021/08/17 06:08:05;;;;;;;6.77;2.93;;;14.90;99.90;;;;;;5028309;28;20219;-70
2021/08/17 06:10:31;;;;;;;5.80;2.53;;;14.80;99.90;;;;;;5028407;28;20204;-70
2021/08/17 06:12:58;;;;;;;8.23;3.10;;;14.80;99.90;;;;;;5028603;28;20263;-70
2021/08/17 06:15:25;;;;;;;7.50;3.07;;;14.80;99.90;;;;;;5028088;28;20768;-70
2021/08/17 06:17:53;;;;;;;6.60;2.53;;;14.90;99.90;;;;;;5027988;28;20204;-70
2021/08/17 06:20:19;;;;;;;6.97;3.07;;;14.90;99.90;;;;;;5028278;28;20266;-70
2021/08/17 06:22:46;;;;;;;12.37;3.70;;;14.90;99.90;;;;;;5028243;28;20259;-71
2021/08/17 06:25:13;;;;;;;10.27;3.70;;;14.90;99.90;;;;;;5028285;28;20294;-70
2021/08/17 06:27:39;;;;;;;7.50;3.10;;;14.90;99.90;;;;;;5027585;28;20231;-71
2021/08/17 06:30:07;;;;;;;6.83;2.90;;;15.00;99.90;;;;;;5028528;28;20212;-70
2021/08/17 06:32:34;;;;;;;6.47;3.10;;;15.00;99.90;;;;;;5028235;28;20205;-70
2021/08/17 06:35:03;;;;;;;10.63;3.30;;;15.00;99.90;;;;;;5028026;28;20251;-70
2021/08/17 06:37:30;;;;;;;4.40;2.87;;;15.00;99.90;;;;;;5028061;28;20607;-70
2021/08/17 06:39:56;;;;;;;9.10;3.17;;;15.10;99.90;;;;;;5028165;28;20233;-70
2021/08/17 06:42:23;;;;;;;8.47;2.77;;;15.10;99.90;;;;;;5028267;28;20212;-70
2021/08/17 06:44:50;;;;;;;10.40;2.80;;;15.10;99.90;;;;;;5028011;28;20220;-69
2021/08/17 06:47:17;;;;;;;6.83;2.43;;;15.10;99.90;;;;;;5028176;28;20212;-70
2021/08/17 06:49:43;;;;;;;8.97;3.20;;;15.20;99.90;;;;;;5028159;28;20263;-70
2021/08/17 06:52:12;;;;;;;8.60;3.20;;;15.20;99.90;;;;;;5028241;28;20201;-71
2021/08/17 06:54:38;;;;;;;10.87;3.57;;;15.20;99.90;;;;;;5027894;28;20224;-70
2021/08/17 06:57:05;;;;;;;5.60;3.00;;;15.30;99.90;;;;;;5027967;28;20228;-71
2021/08/17 06:59:32;;;;;;;6.57;2.97;;;15.30;99.90;;;;;;5027708;28;20240;-71
2021/08/17 07:01:58;;;;;;;8.03;2.77;;;15.40;99.90;;;;;;5027974;28;20209;-71
2021/08/17 07:04:27;;;;;;;4.33;2.63;;;15.40;99.90;;;;;;5027999;28;20234;-70
2021/08/17 07:06:54;;;;;;;11.23;2.80;;;15.30;99.90;;;;;;5027912;28;20213;-70
2021/08/17 07:09:21;;;;;;;6.10;2.60;;;15.40;99.90;;;;;;5028069;28;20267;-72
2021/08/17 07:11:48;;;;;;;9.77;3.33;;;15.40;99.90;;;;;;5027913;28;20216;-72
2021/08/17 07:14:16;;;;;;;7.03;3.00;;;15.40;99.90;;;;;;5027561;28;20659;-72
2021/08/17 07:16:42;;;;;;;6.47;3.23;;;15.50;99.90;;;;;;5027782;28;20211;-72
2021/08/17 07:19:09;;;;;;;5.30;3.40;;;15.50;99.90;;;;;;5028053;28;20209;-72
2021/08/17 07:21:35;;;;;;;6.67;2.70;;;15.60;99.90;;;;;;5027838;28;20204;-71
2021/08/17 07:24:03;;;;;;;5.43;2.30;;;15.60;99.90;;;;;;5027953;28;20263;-70
2021/08/17 07:26:31;;;;;;;7.30;2.70;;;15.50;99.90;;;;;;5027825;28;20216;-70
2021/08/17 07:28:57;;;;;;;5.77;3.10;;;15.60;99.90;;;;;;5027707;28;20205;-71
2021/08/17 07:31:24;;;;;;;5.37;2.73;;;15.60;99.90;;;;;;5027953;28;20209;-71
2021/08/17 07:33:50;;;;;;;5.30;2.50;;;15.70;99.90;;;;;;5027631;28;20623;-70
2021/08/17 07:36:17;;;;;;;6.13;2.83;;;15.70;99.90;;;;;;5027514;28;20344;-71
2021/08/17 07:38:44;;;;;;;11.00;2.90;;;15.60;99.90;;;;;;5027701;28;20286;-71
2021/08/17 07:41:10;;;;;;;6.17;2.50;;;15.60;99.90;;;;;;5031232;28;20557;-71
2021/08/17 07:43:38;;;;;;;9.70;3.50;;;15.60;99.90;;;;;;5039465;28;20201;-71
2021/08/17 07:46:05;;;;;;;6.67;3.00;;;15.60;99.90;;;;;;5041518;28;20258;-72
2021/08/17 07:48:31;;;;;;;7.00;2.80;;;15.60;99.90;;;;;;5039176;28;20609;-72
2021/08/17 07:50:58;;;;;;;5.33;2.50;;;15.50;99.90;;;;;;5039821;28;20192;-72
2021/08/17 07:53:25;;;;;;;6.03;2.93;;;15.50;99.90;;;;;;5040672;28;20204;-70
2021/08/17 07:55:52;;;;;;;7.10;3.17;;;15.50;99.90;;;;;;5038278;28;20698;-71
2021/08/17 07:58:19;;;;;;;5.70;2.70;;;15.50;99.90;;;;;;5041596;28;20201;-71
2021/08/17 08:00:47;;;;;;;6.13;2.70;;;15.50;99.90;;;;;;5039604;28;20282;-71
2021/08/17 08:03:13;;;;;;;4.53;2.60;;;15.50;99.90;;;;;;5041558;28;20204;-72
2021/08/17 08:05:40;;;;;;;4.23;2.60;;;15.60;99.90;;;;;;5040267;28;20228;-72
2021/08/17 08:08:07;;;;;;;7.70;2.40;;;15.50;99.90;;;;;;5039451;28;20201;-71
2021/08/17 08:10:33;;;;;;;5.90;2.30;;;15.40;99.90;;;;;;5039171;28;20201;-71
2021/08/17 08:13:00;;;;;;;3.90;2.50;;;15.30;99.90;;;;;;5039281;28;20258;-72
2021/08/17 08:15:27;;;;;;;8.13;2.57;;;15.40;99.90;;;;;;5040183;28;20233;-71
2021/08/17 08:17:55;;;;;;;4.90;2.30;;;15.30;99.90;;;;;;5026657;28;21184;-72
2021/08/17 08:20:21;;;;;;;4.50;2.57;;;15.50;99.90;;;;;;5026888;28;20317;-72
2021/08/17 08:22:49;;;;;;;5.20;2.40;;;15.40;99.90;;;;;;5026757;28;20221;-72
2021/08/17 08:25:16;;;;;;;6.43;2.53;;;15.50;99.90;;;;;;5026775;28;20579;-72
2021/08/17 08:27:43;;;;;;;5.97;2.40;;;15.50;99.90;;;;;;5026488;28;20247;-72
2021/08/17 08:30:11;;;;;;;7.10;2.53;;;15.50;99.90;;;;;;5026593;28;20209;-72
2021/08/17 08:32:37;;;;;;;5.57;3.00;;;15.50;99.90;;;;;;5026769;28;20204;-72
2021/08/17 08:35:07;;;;;;;5.17;2.40;;;15.40;99.90;;;;;;5041469;28;20711;-72
2021/08/17 08:37:34;;;;;;;6.33;2.67;;;15.40;99.90;;;;;;5046519;28;20273;-76
2021/08/17 08:40:02;;;;;;;7.20;2.63;;;15.40;99.90;;;;;;5045963;28;20274;-76
2021/08/17 08:42:29;;;;;;;6.20;2.70;;;15.40;99.90;;;;;;5045945;28;20710;-72
2021/08/17 08:44:56;;;;;;;3.47;2.50;;;15.50;99.90;;;;;;5042989;28;20266;-72
2021/08/17 08:47:23;;;;;;;3.27;2.20;;;15.40;99.90;;;;;;5046084;28;20266;-72
2021/08/17 08:49:52;;;;;;;5.13;2.63;;;15.40;99.90;;;;;;5045702;28;20258;-73
2021/08/17 08:52:21;;;;;;;5.33;3.10;;;15.20;99.90;;;;;;5045871;28;20682;-72
2021/08/17 08:54:48;;;;;;;6.93;2.73;;;15.30;99.90;;;;;;5046211;28;20211;-73
2021/08/17 08:57:15;;;;;;;3.80;2.77;;;15.30;99.90;;;;;;5046386;28;20238;-72
2021/08/17 08:59:42;;;;;;;4.27;2.90;;;15.30;99.90;;;;;;5045707;28;20267;-72
2021/08/17 09:02:11;;;;;;;7.17;3.00;;;15.30;99.90;;;;;;5045925;28;20235;-72
2021/08/17 09:04:38;;;;;;;3.63;2.47;;;15.30;99.90;;;;;;5045781;28;20220;-72
2021/08/17 09:07:06;;;;;;;7.30;3.10;;;15.30;99.90;;;;;;5045669;28;20675;-72
2021/08/17 09:09:34;;;;;;;8.47;3.00;;;15.40;99.90;;;;;;5045935;28;20236;-72
2021/08/17 09:12:01;;;;;;;4.03;3.00;;;15.40;99.90;;;;;;5045414;28;20566;-72
2021/08/17 09:14:29;;;;;;;7.97;3.50;;;15.40;99.90;;;;;;5046247;28;20216;-73
2021/08/17 09:16:57;;;;;;;7.87;3.03;;;15.40;99.90;;;;;;5045011;28;20605;-73
2021/08/17 09:19:33;;;;;;;6.30;2.97;;;15.40;99.90;;;;;;5045478;28;20254;-72
2021/08/17 09:22:03;;;;;;;6.97;2.90;;;15.60;99.90;;;;;;5045709;28;20196;-72
2021/08/17 09:24:32;;;;;;;7.33;3.03;;;15.60;99.90;;;;;;5045360;28;20208;-73
2021/08/17 09:27:02;;;;;;;7.47;2.80;;;15.70;99.90;;;;;;5045557;28;20211;-72
2021/08/17 09:29:33;;;;;;;6.93;3.10;;;15.80;99.90;;;;;;5045350;28;20212;-73
2021/08/17 09:32:02;;;;;;;4.77;3.00;;;15.70;99.90;;;;;;5045312;28;20200;-76
2021/08/17 09:34:34;;;;;;;7.00;4.03;;;15.70;99.90;;;;;;5045347;28;20228;-77
2021/08/17 09:37:04;;;;;;;6.00;3.00;;;15.60;99.90;;;;;;5045390;28;20739;-72
2021/08/17 09:39:34;;;;;;;9.00;2.97;;;15.60;99.90;;;;;;5041982;28;20208;-72
2021/08/17 09:42:15;;;;;;;7.83;2.87;;;15.60;99.90;;;;;;5044948;28;20690;-72
2021/08/17 09:44:43;;;;;;;8.43;3.30;;;15.60;99.90;;;;;;5045121;28;20196;-72
2021/08/17 09:47:10;;;;;;;5.10;2.70;;;15.60;99.90;;;;;;5045186;28;20463;-73
2021/08/17 09:49:37;;;;;;;12.80;4.07;;;15.60;99.90;;;;;;5044513;28;20687;-72
2021/08/17 09:52:12;;;;;;;4.10;2.63;;;15.50;99.90;;;;;;5038474;28;20208;-72
2021/08/17 09:54:41;;;;;;;6.80;2.93;;;15.50;99.90;;;;;;5038474;28;20694;-72
2021/08/17 09:57:08;;;;;;;6.83;2.90;;;15.50;99.90;;;;;;5036969;28;20694;-72
2021/08/17 09:59:38;;;;;;;17.33;3.50;;;15.60;99.90;;;;;;5037883;28;20243;-73
2021/08/17 10:02:06;;;;;;;13.73;3.40;;;15.60;99.90;;;;;;5038006;28;20273;-72
2021/08/17 10:04:33;;;;;;;9.73;2.77;;;15.70;99.90;;;;;;5043670;28;20207;-72
2021/08/17 10:07:01;;;;;;;9.43;3.30;;;15.80;99.90;;;;;;5048018;28;20286;-72
2021/08/17 10:09:29;;;;;;;7.93;3.00;;;15.80;99.90;;;;;;5048366;28;20216;-73
2021/08/17 10:11:56;;;;;;;8.40;3.20;;;15.90;99.90;;;;;;5043632;28;20204;-73
2021/08/17 10:14:23;;;;;;;8.77;2.97;;;16.00;99.90;;;;;;5048160;28;20216;-72
2021/08/17 10:16:51;;;;;;;7.30;2.70;;;16.10;99.90;;;;;;5037030;28;20314;-72
2021/08/17 10:19:20;;;;;;;6.83;2.33;;;16.10;99.90;;;;;;5042374;28;20737;-72
2021/08/17 10:21:49;;;;;;;8.00;3.00;;;16.20;99.90;;;;;;5033926;28;20216;-71
2021/08/17 10:24:27;;;;;;;7.17;2.67;;;16.30;99.90;;;;;;5028282;28;20212;-71
2021/08/17 10:27:16;;;;;;;9.37;2.73;;;16.30;99.90;;;;;;5028125;28;20236;-71
2021/08/17 10:29:56;;;;;;;8.63;2.67;;;16.30;99.90;;;;;;5027959;28;20204;-71
2021/08/17 10:32:51;;;;;;;10.50;3.10;;;16.40;99.90;;;;;;5028030;28;20585;-71
2021/08/17 10:35:59;;;;;;;5.63;2.37;;;16.50;99.90;;;;;;5027807;28;20236;-71
2021/08/17 10:38:49;;;;;;;5.03;2.03;;;16.60;99.90;;;;;;5027814;28;20196;-71
2021/08/17 10:41:32;;;;;;;9.17;2.67;;;16.50;99.90;;;;;;5028117;28;20209;-71
2021/08/17 10:44:11;;;;;;;4.63;2.30;;;16.40;99.90;;;;;;5035295;28;20196;-71
2021/08/17 10:46:58;;;;;;;6.33;2.60;;;16.20;99.90;;;;;;5047580;28;20196;-71
2021/08/17 10:49:45;;;;;;;6.93;2.27;;;16.10;99.90;;;;;;5047414;28;20222;-71
2021/08/17 10:52:25;;;;;;;4.80;2.17;;;16.10;99.90;;;;;;5047277;28;20196;-72
2021/08/17 10:55:31;;;;;;;4.30;2.30;;;16.20;99.90;;;;;;5037205;28;20184;-73
2021/08/17 10:58:00;;;;;;;8.20;2.30;;;16.30;99.90;;;;;;5032445;28;20252;-72
2021/08/17 11:00:58;;;;;;;6.33;2.40;;;16.80;99.90;;;;;;5036733;28;20294;-70
2021/08/17 11:03:47;;;;;;;7.80;2.37;;;17.00;99.90;;;;;;4980760;28;20198;-69
2021/08/17 11:06:42;;;;;;;7.27;2.63;;;16.80;99.90;;;;;;5035629;28;20219;-70
2021/08/17 11:09:10;;;;;;;8.00;2.87;;;16.40;99.90;;;;;;5036730;28;20201;-70
2021/08/17 11:11:38;;;;;;;7.07;2.87;;;15.90;99.90;;;;;;5041380;28;20239;-72
2021/08/17 11:14:12;;;;;;;10.27;3.73;;;15.50;99.90;;;;;;5040404;28;20235;-70
2021/08/17 11:16:48;;;;;;;9.87;3.97;;;15.10;99.90;;;;;;5043704;28;20215;-70
2021/08/17 11:19:15;;;;;;;8.40;5.10;;;14.80;99.90;;;;;;5049117;28;20200;-70
2021/08/17 11:21:44;;;;;;;8.10;4.40;;;14.70;99.90;;;;;;5038691;28;20204;-70
2021/08/17 11:24:19;;;;;;;9.03;3.90;;;14.60;99.90;;;;;;5041910;28;20201;-69
2021/08/17 11:26:48;;;;;;;8.07;3.03;;;14.60;99.90;;;;;;5041475;28;20301;-71
2021/08/17 11:29:24;;;;;;;6.60;3.37;;;14.60;99.90;;;;;;5040381;28;20297;-70
2021/08/17 11:31:51;;;;;;;6.93;3.60;;;14.70;99.90;;;;;;5030295;28;20270;-70
2021/08/17 11:34:21;;;;;;;5.80;3.00;;;14.80;99.90;;;;;;5030125;28;20275;-70
2021/08/17 11:36:52;;;;;;;8.23;2.77;;;14.90;99.90;;;;;;5049545;28;20258;-70
2021/08/17 11:39:21;;;;;;;6.97;3.03;;;15.00;99.90;;;;;;5050472;28;20736;-70
2021/08/17 11:41:48;;;;;;;7.97;2.70;;;15.20;99.90;;;;;;5050880;28;20682;-70
2021/08/17 11:44:16;;;;;;;8.23;2.73;;;15.20;99.90;;;;;;5050518;28;20204;-70
2021/08/17 11:46:43;;;;;;;7.80;3.10;;;15.30;99.90;;;;;;5050526;28;20212;-70
2021/08/17 11:49:23;;;;;;;5.73;2.70;;;15.40;99.90;;;;;;5050316;28;20706;-71
2021/08/17 11:52:05;;;;;;;6.80;2.90;;;15.50;99.90;;;;;;5049329;28;20236;-70
2021/08/17 11:54:32;;;;;;;5.97;2.37;;;15.60;99.90;;;;;;5050407;28;20658;-71
2021/08/17 11:57:00;;;;;;;7.53;3.00;;;15.70;99.90;;;;;;5050241;28;20246;-71
2021/08/17 11:59:40;;;;;;;8.10;2.80;;;15.80;99.90;;;;;;5050182;28;20255;-70
2021/08/17 12:02:07;;;;;;;5.70;2.50;;;15.90;99.90;;;;;;5041758;28;20237;-70
2021/08/17 12:04:34;;;;;;;7.60;2.80;;;16.00;99.90;;;;;;5048485;28;20204;-70
2021/08/17 12:07:15;;;;;;;6.40;2.60;;;16.20;99.90;;;;;;5050475;28;20212;-72
2021/08/17 12:09:44;;;;;;;5.43;2.80;;;16.30;99.90;;;;;;5050361;28;20189;-70
2021/08/17 12:12:13;;;;;;;6.30;2.47;;;16.30;99.90;;;;;;5035059;28;20241;-71
2021/08/17 12:14:41;;;;;;;9.07;2.87;;;16.30;99.90;;;;;;5030303;28;20209;-70
2021/08/17 12:17:10;;;;;;;5.90;2.40;;;16.20;99.90;;;;;;5041551;28;20329;-71
2021/08/17 12:19:46;;;;;;;8.77;2.90;;;16.20;99.90;;;;;;5050132;28;20248;-70
2021/08/17 12:22:23;;;;;;;8.30;3.30;;;16.20;99.90;;;;;;5050159;28;20203;-71
2021/08/17 12:24:52;;;;;;;5.67;2.53;;;16.20;99.90;;;;;;5049224;28;20626;-71
2021/08/17 12:27:24;;;;;;;6.73;2.30;;;16.30;99.90;;;;;;5049675;28;20278;-71
2021/08/17 12:29:53;;;;;;;10.43;2.90;;;16.30;99.90;;;;;;5035391;28;20196;-71
2021/08/17 12:32:21;;;;;;;9.63;2.80;;;16.40;99.90;;;;;;5041722;28;20572;-71
2021/08/17 12:34:49;;;;;;;5.83;3.37;;;16.40;99.90;;;;;;5037530;28;20309;-71
2021/08/17 12:37:27;;;;;;;8.13;2.67;;;16.40;99.90;;;;;;5040480;28;20709;-71
2021/08/17 12:39:54;;;;;;;7.57;2.93;;;16.40;99.90;;;;;;5035908;28;20197;-71
2021/08/17 12:42:22;;;;;;;6.03;2.50;;;16.40;99.90;;;;;;5029794;28;20205;-71
2021/08/17 12:44:49;;;;;;;3.93;2.30;;;16.40;99.90;;;;;;5029707;28;20304;-71
2021/08/17 12:47:19;;;;;;;11.30;2.50;;;16.50;99.90;;;;;;5029625;28;20205;-71
2021/08/17 12:49:48;;;;;;;9.77;3.07;;;16.50;99.90;;;;;;5044162;28;20295;-71
2021/08/17 12:52:32;;;;;;;5.40;2.47;;;16.50;99.90;;;;;;5049571;28;20208;-71
2021/08/17 12:55:00;;;;;;;3.97;2.33;;;16.50;99.90;;;;;;5049239;28;20242;-71